Aztec, New Mexico
Current Conditions -  °F | °C
As of 12:53 AM on Sunday 26 Oct 2014 (Local Time) from KFMN Reporting Station
Clear Clear  
Wind Chill: 50°   Ceiling: Unl
Heat Index: 50°   Visibility: 10mi
Dew Point: 33°   Wind: 6mph
Humidity: 52%   Direction: 40°NE
Pressure: 30.15"   Gusts: NA
Location:  36.83°N, 107.99°W
Report Text: KFMN 260653Z AUTO 04005KT 10SM CLR 10/01 A3015 RMK AO2 SLP170 T01000006 402560050
Loading
Personal Weather Stations






























Interactive Weather Map
Tropical Storm Tracking
New forecast layout! Learn more

10-Day Weather Forecast

Advertisements
Track Severe Weather on mobile